Time;durP1;ratioP1;P1;durP2;ratioP2;P2;SDS_P1;SDS_P2;PMS_P1;PMS_P2;Temp;Humidity;BMP_temperature;BMP_pressure;BME280_temperature;BME280_humidity;BME280_pressure;Samples;Min_cycle;Max_cycle;Signal;HPM_P1;HPM_P2
2022/01/05 00:01:33;;;;;;;22.63;15.43;;;;;;;5.10;100.00;100055.38;5047309;28;20079;-78
2022/01/05 00:03:59;;;;;;;23.58;16.48;;;;;;;4.89;100.00;100033.78;5047101;28;20487;-78
2022/01/05 00:06:24;;;;;;;21.17;16.30;;;;;;;5.08;100.00;100067.19;5047271;28;20060;-83
2022/01/05 00:08:50;;;;;;;23.02;14.88;;;;;;;4.87;100.00;100049.03;5048998;28;20122;-79
2022/01/05 00:11:15;;;;;;;20.30;16.05;;;;;;;4.77;100.00;100062.13;5064824;28;20025;-77
2022/01/05 00:13:42;;;;;;;25.25;17.58;;;;;;;4.61;100.00;100066.44;5049432;28;20021;-83
2022/01/05 00:16:08;;;;;;;24.60;17.67;;;;;;;4.48;100.00;100038.44;5046399;28;20037;-80
2022/01/05 00:18:33;;;;;;;23.42;17.48;;;;;;;4.60;100.00;100072.34;5046823;28;20033;-86
2022/01/05 00:21:01;;;;;;;23.35;16.60;;;;;;;4.68;100.00;100068.50;5030092;28;20064;-77
2022/01/05 00:23:27;;;;;;;23.38;16.65;;;;;;;4.54;100.00;100018.31;5047143;28;20029;-77
2022/01/05 00:25:53;;;;;;;23.23;17.13;;;;;;;4.92;100.00;100068.09;5030206;28;20048;-79
2022/01/05 00:28:18;;;;;;;22.83;15.93;;;;;;;4.85;100.00;100082.22;5030194;28;20025;-78
2022/01/05 00:30:44;;;;;;;34.53;18.17;;;;;;;4.80;100.00;100078.53;5046809;28;20137;-79
2022/01/05 00:33:09;;;;;;;25.30;17.50;;;;;;;4.65;100.00;100070.03;5046442;28;20115;-80
2022/01/05 00:35:35;;;;;;;28.40;17.02;;;;;;;4.42;100.00;100058.56;5047611;28;20044;-79
2022/01/05 00:38:01;;;;;;;24.27;17.05;;;;;;;4.35;100.00;100076.09;5050751;28;20025;-78
2022/01/05 00:40:26;;;;;;;26.83;16.95;;;;;;;4.03;100.00;100070.06;5050680;28;20494;-75
2022/01/05 00:42:52;;;;;;;22.60;15.82;;;;;;;3.63;100.00;100019.28;5050392;28;20137;-80
2022/01/05 00:45:17;;;;;;;27.95;17.17;;;;;;;4.04;100.00;100082.03;5050117;28;20126;-82
2022/01/05 00:47:43;;;;;;;34.97;19.60;;;;;;;4.09;100.00;100071.19;5057078;28;20198;-76
2022/01/05 00:50:08;;;;;;;37.03;19.75;;;;;;;4.24;100.00;100069.53;5073502;28;20481;-75
2022/01/05 00:52:34;;;;;;;31.63;18.25;;;;;;;4.05;100.00;100065.94;5073860;28;20073;-76
2022/01/05 00:54:59;;;;;;;35.08;19.10;;;;;;;3.89;100.00;100096.50;5066743;28;20023;-75
2022/01/05 00:57:25;;;;;;;31.23;20.38;;;;;;;3.38;100.00;100040.81;5070923;28;20035;-76
2022/01/05 00:59:50;;;;;;;37.47;19.63;;;;;;;3.69;100.00;100073.25;5072732;28;20021;-76
2022/01/05 01:02:16;;;;;;;41.08;20.50;;;;;;;3.91;100.00;100099.16;5066141;28;20039;-76
2022/01/05 01:04:41;;;;;;;28.60;17.85;;;;;;;3.88;100.00;100079.41;5064962;28;20028;-79
2022/01/05 01:07:07;;;;;;;27.60;18.92;;;;;;;3.85;100.00;100092.00;5070152;28;20033;-77
2022/01/05 01:09:32;;;;;;;27.00;17.27;;;;;;;3.36;100.00;100057.72;5072824;28;20025;-76
2022/01/05 01:11:58;;;;;;;25.48;16.90;;;;;;;3.24;100.00;100101.25;5072428;28;20016;-76
2022/01/05 01:14:23;;;;;;;32.30;18.30;;;;;;;3.16;100.00;100091.38;5066199;28;20102;-81
2022/01/05 01:16:49;;;;;;;36.75;18.02;;;;;;;3.22;100.00;100094.28;5079427;28;20458;-81
2022/01/05 01:19:14;;;;;;;37.85;18.67;;;;;;;3.19;100.00;100083.88;5072660;28;20024;-78
2022/01/05 01:21:39;;;;;;;41.10;18.80;;;;;;;3.30;100.00;100082.88;5071546;28;20482;-82
2022/01/05 01:24:05;;;;;;;36.13;18.88;;;;;;;3.26;100.00;100065.63;5071494;28;20413;-81
2022/01/05 01:26:31;;;;;;;45.00;21.55;;;;;;;3.42;100.00;100081.84;5065293;28;20059;-83
2022/01/05 01:28:58;;;;;;;35.75;18.27;;;;;;;3.46;100.00;100071.03;5067314;28;20032;-82
2022/01/05 01:31:24;;;;;;;31.63;17.60;;;;;;;3.24;100.00;100018.75;5051756;28;20099;-78
2022/01/05 01:33:51;;;;;;;43.92;18.65;;;;;;;3.61;100.00;100084.69;5053047;28;20025;-83
2022/01/05 01:36:16;;;;;;;32.33;17.33;;;;;;;3.40;100.00;100031.59;5052959;28;20094;-79
2022/01/05 01:38:42;;;;;;;43.70;17.70;;;;;;;3.30;100.00;100062.47;5053059;28;20028;-78
2022/01/05 01:41:09;;;;;;;35.97;20.95;;;;;;;2.90;100.00;100037.09;5052635;28;20475;-81
2022/01/05 01:43:36;;;;;;;33.42;19.60;;;;;;;2.89;100.00;100071.94;5052590;28;20028;-81
2022/01/05 01:46:04;;;;;;;29.52;19.17;;;;;;;2.97;100.00;100067.28;5051742;28;20438;-87
2022/01/05 01:48:30;;;;;;;27.50;16.48;;;;;;;3.05;100.00;100078.84;5051751;28;20044;-89
2022/01/05 01:50:56;;;;;;;25.45;17.15;;;;;;;2.86;100.00;100053.03;5050608;28;20048;-84
2022/01/05 01:53:22;;;;;;;25.30;16.52;;;;;;;2.67;100.00;100051.03;5066867;28;20543;-84
2022/01/05 01:55:49;;;;;;;27.48;16.83;;;;;;;2.58;100.00;100070.03;5051397;28;20033;-89
2022/01/05 01:58:15;;;;;;;24.75;16.30;;;;;;;2.48;100.00;100054.97;5051464;28;20017;-89
2022/01/05 02:00:41;;;;;;;24.92;16.60;;;;;;;2.62;100.00;100060.03;5030192;28;20065;-89
2022/01/05 02:03:06;;;;;;;32.88;18.42;;;;;;;2.56;100.00;100055.44;5030738;28;20033;-89
2022/01/05 02:05:32;;;;;;;73.88;19.63;;;;;;;2.37;100.00;100054.28;5042582;28;20525;-85
2022/01/05 02:07:57;;;;;;;41.42;19.20;;;;;;;2.23;100.00;100021.97;5048617;28;20039;-86
2022/01/05 02:10:23;;;;;;;55.83;19.90;;;;;;;2.27;100.00;100029.03;5049285;28;20046;-85
2022/01/05 02:12:50;;;;;;;178.68;32.15;;;;;;;2.34;100.00;100031.16;5049241;28;20091;-83
2022/01/05 02:15:16;;;;;;;205.40;29.58;;;;;;;2.49;100.00;100046.50;5049479;28;20072;-80
2022/01/05 02:18:08;;;;;;;157.32;27.15;;;;;;;2.19;100.00;100058.22;5036837;28;20095;-79
2022/01/05 02:20:35;;;;;;;62.30;21.53;;;;;;;1.99;100.00;100051.84;5042767;28;20053;-81
2022/01/05 02:23:00;;;;;;;44.97;24.87;;;;;;;1.98;100.00;100017.88;5049131;28;20028;-80
2022/01/05 02:25:26;;;;;;;77.20;62.75;;;;;;;2.02;100.00;100047.84;5048773;28;20191;-82
2022/01/05 02:27:56;;;;;;;50.47;40.42;;;;;;;1.87;100.00;100011.19;5032525;28;20094;-83
2022/01/05 02:30:29;;;;;;;28.85;22.98;;;;;;;2.08;100.00;100038.06;5048951;28;20421;-81
2022/01/05 02:32:55;;;;;;;26.83;18.10;;;;;;;2.10;100.00;100008.44;5067027;28;20039;-84
2022/01/05 02:35:21;;;;;;;28.40;17.98;;;;;;;2.30;100.00;100016.47;5067015;28;20398;-85
2022/01/05 02:37:52;;;;;;;28.23;17.42;;;;;;;2.35;100.00;99999.81;5066744;28;20025;-83
2022/01/05 02:40:20;;;;;;;27.85;17.30;;;;;;;2.41;100.00;100022.25;5050280;28;20061;-83
2022/01/05 02:42:46;;;;;;;37.35;18.23;;;;;;;2.55;100.00;100049.44;5066828;28;20025;-84
2022/01/05 02:45:14;;;;;;;29.20;17.55;;;;;;;2.51;100.00;100028.78;5066766;28;20031;-85
2022/01/05 02:47:40;;;;;;;31.48;17.42;;;;;;;2.47;100.00;100026.81;5066655;28;20040;-79
2022/01/05 02:50:08;;;;;;;28.20;17.33;;;;;;;2.43;100.00;100019.00;5065703;28;20044;-79
2022/01/05 02:52:34;;;;;;;32.60;17.80;;;;;;;2.66;100.00;100031.41;5051019;28;20039;-84
2022/01/05 02:55:02;;;;;;;36.20;18.02;;;;;;;2.76;100.00;100026.06;5051372;28;20028;-79
2022/01/05 02:57:28;;;;;;;49.25;20.73;;;;;;;2.66;100.00;100029.72;5049880;28;20460;-80
2022/01/05 02:59:54;;;;;;;68.47;24.67;;;;;;;2.87;100.00;100029.28;5049561;28;20045;-83
2022/01/05 03:02:20;;;;;;;54.10;22.60;;;;;;;3.01;100.00;100030.13;5049698;28;20402;-79
2022/01/05 03:04:45;;;;;;;60.63;23.42;;;;;;;3.15;100.00;100031.81;5049499;28;20039;-80
2022/01/05 03:07:13;;;;;;;66.35;23.75;;;;;;;3.22;100.00;100022.88;5063635;28;20036;-79
2022/01/05 03:09:38;;;;;;;64.22;26.00;;;;;;;3.31;100.00;100019.97;5070618;28;20119;-77
2022/01/05 03:12:04;;;;;;;72.90;23.00;;;;;;;3.27;100.00;100010.38;5086097;28;20055;-80
2022/01/05 03:14:30;;;;;;;74.00;20.27;;;;;;;3.22;100.00;100021.19;5086013;28;20033;-79
2022/01/05 03:16:55;;;;;;;115.80;20.70;;;;;;;2.68;100.00;99977.19;5069167;28;20082;-78
2022/01/05 03:19:21;;;;;;;97.90;21.45;;;;;;;2.92;100.00;100033.00;5070854;28;20032;-81
2022/01/05 03:21:46;;;;;;;117.20;21.38;;;;;;;2.77;100.00;99998.91;5068795;28;20043;-79
2022/01/05 03:24:11;;;;;;;167.75;30.35;;;;;;;2.75;100.00;100017.56;5070482;28;20470;-79
2022/01/05 03:26:37;;;;;;;122.68;22.90;;;;;;;2.71;100.00;100022.38;5086206;28;20547;-76
2022/01/05 03:29:02;;;;;;;96.60;20.58;;;;;;;2.35;100.00;100001.47;5070019;28;20492;-85
2022/01/05 03:31:28;;;;;;;139.65;23.00;;;;;;;2.25;100.00;100011.06;5068168;28;20025;-82
2022/01/05 03:33:53;;;;;;;92.55;23.27;;;;;;;2.16;100.00;99994.38;5065498;28;20031;-85
2022/01/05 03:36:19;;;;;;;171.90;27.55;;;;;;;2.03;100.00;99985.97;5050131;28;20024;-82
2022/01/05 03:38:44;;;;;;;112.90;22.65;;;;;;;1.87;100.00;99989.19;5050385;28;20068;-83
2022/01/05 03:41:10;;;;;;;131.50;20.57;;;;;;;1.84;100.00;100014.44;5064822;28;20497;-87
2022/01/05 03:43:35;;;;;;;97.20;18.97;;;;;;;1.39;100.00;99997.94;5082176;28;20032;-84
2022/01/05 03:46:01;;;;;;;65.60;18.40;;;;;;;1.24;100.00;100002.91;5067692;28;20048;-82
2022/01/05 03:48:26;;;;;;;99.30;21.17;;;;;;;1.30;100.00;100018.56;5068842;28;20033;-82
2022/01/05 03:50:52;;;;;;;64.53;20.33;;;;;;;1.38;100.00;100012.31;5070306;28;20059;-83
2022/01/05 03:53:18;;;;;;;104.23;21.97;;;;;;;1.28;100.00;100000.66;5070888;28;20394;-83
2022/01/05 03:55:46;;;;;;;163.57;23.07;;;;;;;1.31;100.00;99979.66;5085916;28;20413;-81
2022/01/05 03:58:12;;;;;;;157.77;38.27;;;;;;;1.48;100.00;100008.72;5069117;28;20059;-82
2022/01/05 04:00:42;;;;;;;98.53;22.03;;;;;;;1.36;100.00;100003.72;5086057;28;20106;-81
2022/01/05 04:03:08;;;;;;;84.87;19.80;;;;;;;1.39;100.00;100018.28;5085824;28;20039;-81
2022/01/05 04:05:33;;;;;;;139.67;22.27;;;;;;;1.21;100.00;99995.03;5069258;28;20025;-80
2022/01/05 04:07:59;;;;;;;132.97;25.13;;;;;;;1.35;100.00;100007.03;5070454;28;20024;-81
2022/01/05 04:10:25;;;;;;;109.97;20.80;;;;;;;1.49;100.00;100001.97;5071207;28;20024;-82
2022/01/05 04:12:51;;;;;;;93.17;20.80;;;;;;;1.47;100.00;99983.19;5073075;28;20405;-81
2022/01/05 04:15:17;;;;;;;141.97;21.63;;;;;;;1.64;100.00;100002.09;5089544;28;20036;-82
2022/01/05 04:17:43;;;;;;;160.30;20.33;;;;;;;1.64;100.00;99990.25;5074143;28;20043;-84
2022/01/05 04:20:10;;;;;;;99.43;17.97;;;;;;;1.73;100.00;100006.13;5089903;28;20041;-83
2022/01/05 04:22:35;;;;;;;69.00;17.70;;;;;;;1.48;100.00;99988.34;5084140;28;20029;-82
2022/01/05 04:25:01;;;;;;;79.67;20.70;;;;;;;1.40;100.00;100003.13;5053806;28;20040;-71
2022/01/05 04:27:27;;;;;;;135.63;27.73;;;;;;;1.47;100.00;100018.78;5054178;28;20086;-71
2022/01/05 04:29:52;;;;;;;117.50;22.50;;;;;;;1.43;100.00;100025.34;5054060;28;20021;-72
2022/01/05 04:32:18;;;;;;;75.17;18.80;;;;;;;1.30;100.00;100010.94;5054113;28;20512;-71
2022/01/05 04:34:43;;;;;;;44.73;15.67;;;;;;;1.50;100.00;100029.19;5053657;28;20625;-71
2022/01/05 04:37:09;;;;;;;39.67;14.67;;;;;;;1.41;100.00;100021.84;5058377;28;20044;-71
2022/01/05 04:39:36;;;;;;;42.57;15.87;;;;;;;1.47;100.00;100034.94;5071218;28;20040;-70
2022/01/05 04:42:01;;;;;;;40.50;14.93;;;;;;;1.19;100.00;99991.53;5071071;28;20117;-70
2022/01/05 04:44:27;;;;;;;49.33;17.83;;;;;;;1.37;100.00;100043.63;5071141;28;20494;-71
2022/01/05 04:46:52;;;;;;;36.87;15.63;;;;;;;1.13;100.00;100014.88;5070813;28;20040;-71
2022/01/05 04:49:18;;;;;;;56.83;15.30;;;;;;;1.23;100.00;100034.19;5070491;28;20052;-71
2022/01/05 04:51:43;;;;;;;61.40;14.33;;;;;;;1.24;100.00;100041.91;5071200;28;20059;-71
2022/01/05 04:54:09;;;;;;;62.57;15.67;;;;;;;1.15;100.00;100040.41;5070821;28;20109;-70
2022/01/05 04:56:34;;;;;;;72.17;16.33;;;;;;;0.82;100.00;99987.38;5070934;28;20048;-71
2022/01/05 04:59:00;;;;;;;83.03;19.27;;;;;;;1.02;100.00;100024.31;5070983;28;20211;-70
2022/01/05 05:01:25;;;;;;;44.67;15.57;;;;;;;1.10;100.00;100024.88;5070861;28;20040;-70
2022/01/05 05:03:51;;;;;;;54.83;14.23;;;;;;;1.13;100.00;100033.59;5070467;28;20040;-70
2022/01/05 05:06:17;;;;;;;71.57;15.80;;;;;;;1.02;100.00;100009.06;5070873;28;20383;-71
2022/01/05 05:08:42;;;;;;;49.57;13.17;;;;;;;1.21;100.00;100033.19;5057728;28;20128;-70
2022/01/05 05:11:08;;;;;;;68.23;14.67;;;;;;;1.00;100.00;99991.94;5053435;28;20032;-70
2022/01/05 05:13:33;;;;;;;86.10;14.87;;;;;;;1.19;100.00;100029.69;5053327;28;20029;-70
2022/01/05 05:16:01;;;;;;;78.70;14.87;;;;;;;1.15;100.00;100018.41;5053482;28;20029;-70
2022/01/05 05:18:27;;;;;;;48.73;15.17;;;;;;;1.02;100.00;99985.31;5053011;28;20028;-70
2022/01/05 05:20:52;;;;;;;59.73;14.80;;;;;;;1.44;100.00;100039.81;5052785;28;20025;-70
2022/01/05 05:23:18;;;;;;;58.37;16.07;;;;;;;1.42;100.00;100046.47;5056488;28;20467;-68
2022/01/05 05:25:44;;;;;;;47.03;15.50;;;;;;;1.35;100.00;100054.47;5066804;28;20035;-71
2022/01/05 05:28:09;;;;;;;51.80;19.03;;;;;;;1.17;100.00;100052.44;5072524;28;20035;-71
2022/01/05 05:30:35;;;;;;;31.73;14.03;;;;;;;1.09;100.00;100041.75;5072841;28;20466;-71
2022/01/05 05:33:04;;;;;;;27.50;12.73;;;;;;;0.94;100.00;100033.09;5072575;28;20520;-71
2022/01/05 05:35:30;;;;;;;30.70;13.00;;;;;;;0.85;100.00;100050.25;5072402;28;20475;-71
2022/01/05 05:37:56;;;;;;;37.83;14.63;;;;;;;0.90;100.00;100054.88;5072820;28;20028;-71
2022/01/05 05:40:25;;;;;;;54.27;16.60;;;;;;;0.93;100.00;100046.59;5072352;28;20025;-72
2022/01/05 05:42:51;;;;;;;32.35;14.45;;;;;;;1.05;100.00;100061.81;5072650;28;20120;-71
2022/01/05 05:45:17;;;;;;;58.23;16.40;;;;;;;1.00;100.00;100051.31;5072818;28;20093;-71
2022/01/05 05:47:42;;;;;;;65.80;15.37;;;;;;;1.07;100.00;100058.59;5071986;28;20413;-73
2022/01/05 05:50:10;;;;;;;44.70;16.27;;;;;;;1.16;100.00;100060.88;5072363;28;20060;-69
2022/01/05 05:52:35;;;;;;;54.57;14.73;;;;;;;1.13;100.00;100058.09;5072196;28;20032;-73
2022/01/05 05:55:01;;;;;;;57.03;14.57;;;;;;;1.20;100.00;100072.13;5072211;28;20089;-71
2022/01/05 05:57:26;;;;;;;65.50;14.83;;;;;;;1.13;100.00;100053.03;5072473;28;20033;-72
2022/01/05 05:59:52;;;;;;;68.77;15.00;;;;;;;1.24;100.00;100072.41;5072051;28;20037;-71
2022/01/05 06:02:17;;;;;;;45.53;13.63;;;;;;;1.31;100.00;100076.28;5072125;28;20024;-71
2022/01/05 06:04:43;;;;;;;47.03;13.87;;;;;;;1.24;100.00;100061.38;5072277;28;20028;-69
2022/01/05 06:07:08;;;;;;;39.10;13.77;;;;;;;1.24;100.00;100067.34;5072186;28;20032;-69
2022/01/05 06:09:34;;;;;;;52.00;14.13;;;;;;;1.21;100.00;100071.31;5070278;28;20086;-72
2022/01/05 06:11:59;;;;;;;42.00;13.63;;;;;;;1.31;100.00;100086.47;5072199;28;20032;-72
2022/01/05 06:14:25;;;;;;;32.77;13.23;;;;;;;0.98;100.00;100027.44;5065688;28;20553;-73
2022/01/05 06:16:50;;;;;;;35.47;12.43;;;;;;;1.21;100.00;100066.25;5065046;28;20056;-73
2022/01/05 06:19:15;;;;;;;39.17;10.70;;;;;;;1.01;100.00;100029.31;5071134;28;20016;-73
2022/01/05 06:21:43;;;;;;;41.53;11.63;;;;;;;1.22;100.00;100068.91;5071858;28;20036;-73
2022/01/05 06:24:08;;;;;;;26.47;11.43;;;;;;;1.15;100.00;100050.56;5071513;28;20094;-73
2022/01/05 06:26:34;;;;;;;33.17;11.63;;;;;;;1.21;100.00;100076.41;5072281;28;20056;-73
2022/01/05 06:29:00;;;;;;;42.10;13.70;;;;;;;1.18;100.00;100066.06;5071708;28;20096;-73
2022/01/05 06:31:25;;;;;;;26.37;12.43;;;;;;;1.29;100.00;100081.25;5052192;28;20498;-74
2022/01/05 06:33:50;;;;;;;49.63;14.90;;;;;;;1.06;100.00;100021.22;5070615;28;20442;-73
2022/01/05 06:36:16;;;;;;;37.83;13.87;;;;;;;1.31;100.00;100078.81;5071280;28;20040;-71
2022/01/05 06:38:41;;;;;;;29.87;13.83;;;;;;;1.36;100.00;100096.91;5071451;28;20037;-72
2022/01/05 06:41:07;;;;;;;39.53;13.83;;;;;;;0.96;100.00;100029.03;5071146;28;20028;-72
2022/01/05 06:43:34;;;;;;;32.33;13.00;;;;;;;1.27;100.00;100081.91;5071019;28;20024;-74
2022/01/05 06:45:59;;;;;;;48.23;12.80;;;;;;;1.25;100.00;100098.75;5071203;28;20078;-72
2022/01/05 06:48:25;;;;;;;64.03;16.63;;;;;;;1.16;100.00;100087.94;5054174;28;20033;-73
2022/01/05 06:50:50;;;;;;;50.17;14.13;;;;;;;1.10;100.00;100074.03;5050802;28;20041;-70
2022/01/05 06:53:16;;;;;;;65.17;15.37;;;;;;;1.11;100.00;100085.97;5050623;28;20055;-71
2022/01/05 06:55:41;;;;;;;48.13;15.73;;;;;;;1.02;100.00;100072.63;5050988;28;20043;-71
2022/01/05 06:58:07;;;;;;;37.27;13.03;;;;;;;1.16;100.00;100103.19;5051350;28;20075;-71
2022/01/05 07:00:33;;;;;;;30.63;13.07;;;;;;;0.89;100.00;100049.69;5051257;28;20032;-71
2022/01/05 07:02:59;;;;;;;43.83;13.53;;;;;;;1.21;100.00;100078.97;5050893;28;20017;-71
2022/01/05 07:05:25;;;;;;;29.53;12.30;;;;;;;1.41;100.00;100086.28;5051145;28;20540;-71
2022/01/05 07:07:51;;;;;;;26.07;10.73;;;;;;;1.29;100.00;100101.59;5051129;28;20474;-71
2022/01/05 07:10:17;;;;;;;19.37;11.30;;;;;;;1.21;100.00;100084.03;5050972;28;20036;-72
2022/01/05 07:12:42;;;;;;;22.47;11.67;;;;;;;1.36;100.00;100096.91;5050648;28;20033;-71
2022/01/05 07:15:09;;;;;;;26.87;13.20;;;;;;;1.37;100.00;100089.41;5050871;28;20087;-72
2022/01/05 07:17:34;;;;;;;57.73;19.33;;;;;;;1.29;100.00;100060.91;5050809;28;20545;-72
2022/01/05 07:20:00;;;;;;;28.33;13.63;;;;;;;1.56;100.00;100088.09;5059626;28;20017;-68
2022/01/05 07:22:25;;;;;;;23.80;11.43;;;;;;;1.56;100.00;100095.75;5070560;28;20045;-68
2022/01/05 07:24:52;;;;;;;25.47;12.67;;;;;;;1.54;100.00;100087.09;5068979;28;20089;-68
2022/01/05 07:27:17;;;;;;;35.33;13.13;;;;;;;1.23;100.00;100044.34;5070874;28;20029;-69
2022/01/05 07:29:43;;;;;;;30.73;13.40;;;;;;;1.48;100.00;100076.53;5070876;28;20126;-68
2022/01/05 07:32:08;;;;;;;32.83;13.93;;;;;;;1.62;100.00;100083.44;5070872;28;20501;-69
2022/01/05 07:34:34;;;;;;;28.50;17.00;;;;;;;1.62;100.00;100073.25;5070596;28;20113;-69
2022/01/05 07:36:59;;;;;;;37.00;15.43;;;;;;;1.75;100.00;100085.97;5050155;28;20123;-68
2022/01/05 07:39:25;;;;;;;17.73;11.23;;;;;;;1.64;100.00;100076.75;5070961;28;20154;-68
2022/01/05 07:41:50;;;;;;;37.67;12.00;;;;;;;1.40;100.00;100037.88;5070220;28;20081;-68
2022/01/05 07:44:16;;;;;;;28.53;12.77;;;;;;;1.77;100.00;100086.97;5070359;28;20593;-68
2022/01/05 07:46:41;;;;;;;67.43;18.77;;;;;;;1.83;100.00;100081.38;5070516;28;20065;-68
2022/01/05 07:49:07;;;;;;;40.03;15.33;;;;;;;1.96;100.00;100092.38;5070283;28;20056;-69
2022/01/05 07:51:33;;;;;;;36.30;15.27;;;;;;;1.98;100.00;100088.28;5070597;28;20037;-69
2022/01/05 07:53:59;;;;;;;31.10;14.53;;;;;;;1.82;100.00;100088.94;5070564;28;20035;-69
2022/01/05 07:56:25;;;;;;;33.77;14.20;;;;;;;1.85;100.00;100094.22;5070502;28;20029;-69
2022/01/05 07:58:50;;;;;;;41.83;16.37;;;;;;;1.88;100.00;100074.97;5070550;28;20024;-69
2022/01/05 08:01:18;;;;;;;41.78;14.85;;;;;;;1.80;100.00;100083.75;5070369;28;20405;-69
2022/01/05 08:03:47;;;;;;;33.92;15.73;;;;;;;1.74;100.00;100093.53;5070322;28;20112;-69
2022/01/05 08:06:13;;;;;;;34.28;15.70;;;;;;;1.86;100.00;100101.97;5070226;28;20103;-69
2022/01/05 08:08:39;;;;;;;28.90;17.37;;;;;;;1.88;100.00;100099.50;5070520;28;20108;-69
2022/01/05 08:11:04;;;;;;;25.20;15.77;;;;;;;1.93;100.00;100087.97;5070478;28;20021;-69
2022/01/05 08:13:30;;;;;;;39.00;19.30;;;;;;;2.00;100.00;100074.84;5067570;28;20041;-69
2022/01/05 08:15:55;;;;;;;41.65;16.48;;;;;;;2.22;100.00;100092.41;5067797;28;20071;-69
2022/01/05 08:18:22;;;;;;;31.33;16.75;;;;;;;2.39;100.00;100083.31;5067752;28;20036;-69
2022/01/05 08:20:47;;;;;;;52.92;21.38;;;;;;;2.42;100.00;100095.34;5067681;28;20091;-70
2022/01/05 08:23:17;;;;;;;54.00;20.83;;;;;;;2.46;100.00;100081.13;5067775;28;20071;-70
2022/01/05 08:25:43;;;;;;;36.08;16.88;;;;;;;2.35;100.00;100037.16;5067263;28;20116;-69
2022/01/05 08:28:11;;;;;;;30.10;13.88;;;;;;;2.68;100.00;100084.25;5067718;28;20131;-69
2022/01/05 08:30:36;;;;;;;38.53;14.73;;;;;;;2.52;100.00;100038.22;5067563;28;20047;-69
2022/01/05 08:33:03;;;;;;;61.00;17.25;;;;;;;2.75;100.00;100098.22;5067592;28;20045;-69
2022/01/05 08:35:30;;;;;;;50.00;18.13;;;;;;;2.58;100.00;100069.16;5067476;28;20048;-69
2022/01/05 08:37:55;;;;;;;67.38;15.65;;;;;;;2.28;100.00;100043.53;5067503;28;20044;-69
2022/01/05 08:40:24;;;;;;;40.67;15.38;;;;;;;2.63;100.00;100092.38;5067262;28;20028;-69
2022/01/05 08:42:52;;;;;;;74.53;16.23;;;;;;;2.81;100.00;100093.53;5067661;28;20040;-69
2022/01/05 08:45:18;;;;;;;107.65;16.98;;;;;;;2.79;100.00;100091.66;5069495;28;20529;-69
2022/01/05 08:47:47;;;;;;;78.25;16.83;;;;;;;2.34;100.00;100055.75;5070142;28;20066;-69
2022/01/05 08:50:24;;;;;;;67.45;13.80;;;;;;;2.67;100.00;100087.56;5070063;28;20500;-69
2022/01/05 08:52:51;;;;;;;73.45;20.10;;;;;;;2.81;100.00;100085.00;5069825;28;20032;-69
2022/01/05 08:55:22;;;;;;;75.32;17.13;;;;;;;2.85;100.00;100098.00;5069946;28;20115;-69
2022/01/05 08:57:49;;;;;;;65.45;16.42;;;;;;;2.95;100.00;100089.25;5072551;28;20035;-70
2022/01/05 09:03:36;;;;;;;54.00;19.02;;;;;;;3.14;100.00;100075.06;5073336;28;20039;-69
2022/01/05 09:06:04;;;;;;;47.95;19.08;;;;;;;3.31;100.00;100069.31;5073440;28;20100;-69
2022/01/05 09:08:29;;;;;;;69.05;22.50;;;;;;;3.50;100.00;100065.28;5070960;28;20029;-69
2022/01/05 09:10:55;;;;;;;47.63;20.67;;;;;;;3.34;100.00;100017.59;5073525;28;20043;-69
2022/01/05 09:13:21;;;;;;;53.10;21.90;;;;;;;3.72;100.00;100064.88;5073655;28;20501;-69
2022/01/05 09:15:47;;;;;;;65.13;24.33;;;;;;;3.55;100.00;100052.03;5073379;28;20020;-69
2022/01/05 09:18:15;;;;;;;72.75;23.35;;;;;;;3.42;100.00;100046.13;5070683;28;20040;-69
2022/01/05 09:20:40;;;;;;;49.03;23.30;;;;;;;3.61;100.00;100050.63;5073249;28;20568;-69
2022/01/05 09:23:06;;;;;;;51.83;24.90;;;;;;;3.78;100.00;100049.06;5073192;28;20032;-69
2022/01/05 09:25:32;;;;;;;56.63;25.20;;;;;;;3.63;100.00;100057.56;5073056;28;20031;-69
2022/01/05 09:27:57;;;;;;;58.70;27.95;;;;;;;3.76;100.00;100046.38;5072471;28;20025;-69
2022/01/05 09:30:23;;;;;;;65.22;28.38;;;;;;;3.69;100.00;100040.06;5071960;28;20028;-69
2022/01/05 09:32:49;;;;;;;54.65;25.50;;;;;;;3.70;100.00;100043.47;5069714;28;20099;-69
2022/01/05 09:35:18;;;;;;;63.00;28.55;;;;;;;3.70;100.00;100043.47;5067934;28;20039;-69
2022/01/05 09:37:55;;;;;;;55.92;25.92;;;;;;;3.82;100.00;100040.75;5066323;28;20041;-69
2022/01/05 09:43:07;;;;;;;40.88;24.08;;;;;;;4.10;100.00;100033.00;5069499;28;20082;-69
2022/01/05 09:45:42;;;;;;;44.13;25.90;;;;;;;4.18;100.00;100033.41;5068958;28;20033;-69
2022/01/05 09:48:37;;;;;;;36.63;21.13;;;;;;;4.13;100.00;100033.16;5068072;28;20429;-70
2022/01/05 09:51:06;;;;;;;42.08;23.02;;;;;;;4.15;100.00;100031.56;5015285;28;20124;-69
2022/01/05 09:53:33;;;;;;;44.83;23.55;;;;;;;4.16;100.00;100028.22;5024262;28;20045;-69
2022/01/05 09:55:59;;;;;;;46.92;24.58;;;;;;;3.98;100.00;99981.22;5023879;28;20048;-69
2022/01/05 09:58:27;;;;;;;47.90;26.58;;;;;;;4.15;100.00;99964.25;5028754;28;20519;-71
2022/01/05 10:00:53;;;;;;;48.00;27.60;;;;;;;4.32;100.00;99990.72;5029771;28;20029;-77
2022/01/05 10:03:21;;;;;;;53.00;30.63;;;;;;;4.64;100.00;100015.47;5021492;28;20075;-74
2022/01/05 10:05:46;;;;;;;47.15;29.25;;;;;;;4.78;100.00;100010.19;5023237;28;20103;-74
2022/01/05 10:08:12;;;;;;;54.70;29.48;;;;;;;4.89;100.00;99998.84;5024166;28;20069;-74
2022/01/05 10:10:38;;;;;;;60.28;33.95;;;;;;;4.86;100.00;99980.81;5028772;28;20065;-75
2022/01/05 10:13:04;;;;;;;65.47;36.00;;;;;;;5.01;100.00;99996.94;5028592;28;20030;-75
2022/01/05 10:15:30;;;;;;;70.03;37.90;;;;;;;4.77;100.00;99960.75;5028939;28;20056;-74
2022/01/05 10:18:15;;;;;;;61.80;35.80;;;;;;;4.96;100.00;99988.16;5026941;28;20034;-74
2022/01/05 10:21:01;;;;;;;42.30;26.50;;;;;;;5.07;100.00;99977.56;5029190;28;20478;-75
2022/01/05 10:23:45;;;;;;;35.40;22.02;;;;;;;5.11;100.00;99971.78;5029317;28;20040;-74
2022/01/05 10:26:31;;;;;;;42.85;24.10;;;;;;;5.20;100.00;99972.28;5028899;28;20034;-75
2022/01/05 10:29:04;;;;;;;32.20;21.33;;;;;;;5.07;100.00;99924.75;5067574;28;20052;-75
2022/01/05 10:31:32;;;;;;;38.00;21.95;;;;;;;5.40;100.00;99964.72;5071257;28;20478;-75
2022/01/05 10:34:12;;;;;;;40.78;23.42;;;;;;;5.37;100.00;99941.53;5071626;28;20082;-75
2022/01/05 10:36:55;;;;;;;32.40;20.25;;;;;;;5.63;100.00;99971.84;5071531;28;20033;-75
2022/01/05 10:39:33;;;;;;;26.98;19.70;;;;;;;5.62;100.00;99959.84;5071367;28;20520;-75
2022/01/05 10:42:04;;;;;;;30.60;20.45;;;;;;;5.75;100.00;99955.31;5052259;28;20040;-75
2022/01/05 10:44:30;;;;;;;30.02;20.65;;;;;;;5.81;100.00;99948.78;5071467;28;20039;-76
2022/01/05 10:46:58;;;;;;;30.05;20.05;;;;;;;5.96;100.00;99947.78;5071241;28;20036;-76
2022/01/05 10:49:26;;;;;;;32.88;19.95;;;;;;;6.16;100.00;99943.59;5070752;28;20052;-76
2022/01/05 10:51:52;;;;;;;23.25;18.10;;;;;;;6.29;100.00;99934.78;5068358;28;20115;-78
2022/01/05 10:54:21;;;;;;;27.65;18.73;;;;;;;6.47;100.00;99938.19;5055728;28;20530;-77
2022/01/05 10:56:47;;;;;;;28.03;19.90;;;;;;;6.57;100.00;99943.75;5050653;28;20139;-78
2022/01/05 10:59:16;;;;;;;26.33;18.85;;;;;;;6.57;100.00;99913.81;5050192;28;20052;-77
2022/01/05 11:01:42;;;;;;;24.30;18.23;;;;;;;6.92;100.00;99932.44;5050602;28;20060;-77
2022/01/05 11:04:21;;;;;;;24.30;16.92;;;;;;;6.87;100.00;99927.94;5049953;28;20061;-77
2022/01/05 11:07:04;;;;;;;26.42;18.33;;;;;;;6.86;100.00;99933.88;5050357;28;20040;-77
2022/01/05 11:09:31;;;;;;;26.95;18.75;;;;;;;6.86;100.00;99909.06;5050069;28;20167;-76
2022/01/05 11:11:58;;;;;;;28.25;19.73;;;;;;;7.08;100.00;99908.31;5050175;28;20036;-76
2022/01/05 11:14:34;;;;;;;24.15;17.05;;;;;;;7.24;100.00;99922.66;5051542;28;20021;-77